sensor_id;sensor_type;location;lat;lon;timestamp;P1;durP1;ratioP1;P2;durP2;ratioP2
66559;SDS011;53413;49.878;8.142;2023-07-16T00:01:39;6.60;;;2.63;;
66559;SDS011;53413;49.878;8.142;2023-07-16T00:04:05;5.87;;;2.50;;
66559;SDS011;53413;49.878;8.142;2023-07-16T00:06:30;6.13;;;2.10;;
66559;SDS011;53413;49.878;8.142;2023-07-16T00:08:55;4.78;;;2.00;;
66559;SDS011;53413;49.878;8.142;2023-07-16T00:11:21;4.50;;;2.00;;
66559;SDS011;53413;49.878;8.142;2023-07-16T00:13:46;5.20;;;2.10;;
66559;SDS011;53413;49.878;8.142;2023-07-16T00:16:13;5.43;;;2.08;;
66559;SDS011;53413;49.878;8.142;2023-07-16T00:18:38;6.30;;;2.30;;
66559;SDS011;53413;49.878;8.142;2023-07-16T00:21:04;5.95;;;2.10;;
66559;SDS011;53413;49.878;8.142;2023-07-16T00:23:29;7.93;;;2.20;;
66559;SDS011;53413;49.878;8.142;2023-07-16T00:25:54;6.20;;;2.20;;
66559;SDS011;53413;49.878;8.142;2023-07-16T00:28:20;6.83;;;2.47;;
66559;SDS011;53413;49.878;8.142;2023-07-16T00:30:45;8.00;;;2.50;;
66559;SDS011;53413;49.878;8.142;2023-07-16T00:33:10;5.50;;;2.40;;
66559;SDS011;53413;49.878;8.142;2023-07-16T00:35:36;5.50;;;2.20;;
66559;SDS011;53413;49.878;8.142;2023-07-16T00:38:01;5.60;;;2.10;;
66559;SDS011;53413;49.878;8.142;2023-07-16T00:40:26;6.50;;;2.40;;
66559;SDS011;53413;49.878;8.142;2023-07-16T00:42:52;5.97;;;2.50;;
66559;SDS011;53413;49.878;8.142;2023-07-16T00:45:17;5.13;;;1.98;;
66559;SDS011;53413;49.878;8.142;2023-07-16T00:47:43;5.23;;;2.20;;
66559;SDS011;53413;49.878;8.142;2023-07-16T00:50:10;5.80;;;2.03;;
66559;SDS011;53413;49.878;8.142;2023-07-16T00:52:36;7.88;;;2.33;;
66559;SDS011;53413;49.878;8.142;2023-07-16T00:55:02;7.38;;;2.25;;
66559;SDS011;53413;49.878;8.142;2023-07-16T00:57:27;6.95;;;2.50;;
66559;SDS011;53413;49.878;8.142;2023-07-16T00:59:54;7.05;;;2.30;;
66559;SDS011;53413;49.878;8.142;2023-07-16T01:02:19;5.27;;;2.20;;
66559;SDS011;53413;49.878;8.142;2023-07-16T01:04:46;5.43;;;2.20;;
66559;SDS011;53413;49.878;8.142;2023-07-16T01:07:11;7.67;;;2.47;;
66559;SDS011;53413;49.878;8.142;2023-07-16T01:09:41;6.03;;;2.33;;
66559;SDS011;53413;49.878;8.142;2023-07-16T01:12:07;7.18;;;2.40;;
66559;SDS011;53413;49.878;8.142;2023-07-16T01:14:34;7.70;;;2.35;;
66559;SDS011;53413;49.878;8.142;2023-07-16T01:17:03;8.60;;;2.15;;
66559;SDS011;53413;49.878;8.142;2023-07-16T01:19:32;4.70;;;2.08;;
66559;SDS011;53413;49.878;8.142;2023-07-16T01:27:17;5.50;;;1.90;;
66559;SDS011;53413;49.878;8.142;2023-07-16T01:29:56;4.95;;;1.92;;
66559;SDS011;53413;49.878;8.142;2023-07-16T01:32:26;5.80;;;1.90;;
66559;SDS011;53413;49.878;8.142;2023-07-16T01:34:55;6.22;;;2.05;;
66559;SDS011;53413;49.878;8.142;2023-07-16T01:37:21;5.07;;;2.00;;
66559;SDS011;53413;49.878;8.142;2023-07-16T01:39:46;8.23;;;2.27;;
66559;SDS011;53413;49.878;8.142;2023-07-16T01:42:12;6.37;;;2.00;;
66559;SDS011;53413;49.878;8.142;2023-07-16T01:44:37;5.15;;;1.98;;
66559;SDS011;53413;49.878;8.142;2023-07-16T01:47:19;6.57;;;1.98;;
66559;SDS011;53413;49.878;8.142;2023-07-16T01:49:48;6.70;;;2.17;;
66559;SDS011;53413;49.878;8.142;2023-07-16T01:52:13;6.97;;;2.30;;
66559;SDS011;53413;49.878;8.142;2023-07-16T01:54:39;6.10;;;2.20;;
66559;SDS011;53413;49.878;8.142;2023-07-16T01:57:04;6.93;;;2.27;;
66559;SDS011;53413;49.878;8.142;2023-07-16T01:59:30;6.78;;;2.58;;
66559;SDS011;53413;49.878;8.142;2023-07-16T02:01:55;6.57;;;2.43;;
66559;SDS011;53413;49.878;8.142;2023-07-16T02:04:21;5.70;;;2.40;;
66559;SDS011;53413;49.878;8.142;2023-07-16T02:06:46;6.90;;;2.70;;
66559;SDS011;53413;49.878;8.142;2023-07-16T02:09:13;7.28;;;2.60;;
66559;SDS011;53413;49.878;8.142;2023-07-16T02:11:38;7.60;;;2.50;;
66559;SDS011;53413;49.878;8.142;2023-07-16T02:14:03;7.75;;;2.80;;
66559;SDS011;53413;49.878;8.142;2023-07-16T02:16:29;6.30;;;2.57;;
66559;SDS011;53413;49.878;8.142;2023-07-16T02:18:54;9.43;;;2.90;;
66559;SDS011;53413;49.878;8.142;2023-07-16T02:21:20;7.40;;;2.90;;
66559;SDS011;53413;49.878;8.142;2023-07-16T02:23:45;7.67;;;3.10;;
66559;SDS011;53413;49.878;8.142;2023-07-16T02:26:10;7.83;;;2.87;;
66559;SDS011;53413;49.878;8.142;2023-07-16T02:28:35;8.65;;;3.30;;
66559;SDS011;53413;49.878;8.142;2023-07-16T02:31:02;7.47;;;3.33;;
66559;SDS011;53413;49.878;8.142;2023-07-16T02:33:28;9.18;;;3.35;;
66559;SDS011;53413;49.878;8.142;2023-07-16T02:35:53;10.13;;;3.42;;
66559;SDS011;53413;49.878;8.142;2023-07-16T02:38:18;10.70;;;3.50;;
66559;SDS011;53413;49.878;8.142;2023-07-16T02:40:44;7.63;;;3.50;;
66559;SDS011;53413;49.878;8.142;2023-07-16T02:43:10;8.95;;;3.67;;
66559;SDS011;53413;49.878;8.142;2023-07-16T02:45:36;9.13;;;3.50;;
66559;SDS011;53413;49.878;8.142;2023-07-16T02:48:02;8.83;;;3.60;;
66559;SDS011;53413;49.878;8.142;2023-07-16T02:50:27;7.30;;;3.57;;
66559;SDS011;53413;49.878;8.142;2023-07-16T02:52:53;8.63;;;3.92;;
66559;SDS011;53413;49.878;8.142;2023-07-16T02:55:18;11.47;;;4.13;;
66559;SDS011;53413;49.878;8.142;2023-07-16T02:57:44;8.97;;;3.90;;
66559;SDS011;53413;49.878;8.142;2023-07-16T03:00:09;8.67;;;3.83;;
66559;SDS011;53413;49.878;8.142;2023-07-16T03:02:35;11.10;;;4.07;;
66559;SDS011;53413;49.878;8.142;2023-07-16T03:05:00;10.13;;;4.33;;
66559;SDS011;53413;49.878;8.142;2023-07-16T03:07:26;11.87;;;4.50;;
66559;SDS011;53413;49.878;8.142;2023-07-16T03:09:51;13.33;;;4.83;;
66559;SDS011;53413;49.878;8.142;2023-07-16T03:12:16;11.83;;;4.50;;
66559;SDS011;53413;49.878;8.142;2023-07-16T03:14:42;11.60;;;4.57;;
66559;SDS011;53413;49.878;8.142;2023-07-16T03:17:08;14.38;;;4.53;;
66559;SDS011;53413;49.878;8.142;2023-07-16T03:19:34;11.10;;;4.70;;
66559;SDS011;53413;49.878;8.142;2023-07-16T03:21:59;14.15;;;5.00;;
66559;SDS011;53413;49.878;8.142;2023-07-16T03:24:24;11.03;;;4.60;;
66559;SDS011;53413;49.878;8.142;2023-07-16T03:26:50;12.97;;;5.13;;
66559;SDS011;53413;49.878;8.142;2023-07-16T03:29:15;12.17;;;4.57;;
66559;SDS011;53413;49.878;8.142;2023-07-16T03:31:40;10.47;;;4.70;;
66559;SDS011;53413;49.878;8.142;2023-07-16T03:34:06;12.00;;;4.90;;
66559;SDS011;53413;49.878;8.142;2023-07-16T03:36:31;12.10;;;4.83;;
66559;SDS011;53413;49.878;8.142;2023-07-16T03:38:56;14.20;;;5.18;;
66559;SDS011;53413;49.878;8.142;2023-07-16T03:41:22;14.37;;;5.10;;
66559;SDS011;53413;49.878;8.142;2023-07-16T03:43:47;12.27;;;5.20;;
66559;SDS011;53413;49.878;8.142;2023-07-16T03:46:12;13.23;;;5.17;;
66559;SDS011;53413;49.878;8.142;2023-07-16T03:48:38;10.93;;;4.70;;
66559;SDS011;53413;49.878;8.142;2023-07-16T03:51:03;12.27;;;4.73;;
66559;SDS011;53413;49.878;8.142;2023-07-16T03:53:28;9.73;;;4.73;;
66559;SDS011;53413;49.878;8.142;2023-07-16T03:55:54;11.57;;;4.87;;
66559;SDS011;53413;49.878;8.142;2023-07-16T03:58:19;12.47;;;4.97;;
66559;SDS011;53413;49.878;8.142;2023-07-16T04:00:44;9.80;;;4.38;;
66559;SDS011;53413;49.878;8.142;2023-07-16T04:03:10;10.88;;;4.63;;
66559;SDS011;53413;49.878;8.142;2023-07-16T04:05:35;11.83;;;4.87;;
66559;SDS011;53413;49.878;8.142;2023-07-16T04:08:00;12.33;;;5.27;;
66559;SDS011;53413;49.878;8.142;2023-07-16T04:10:26;14.30;;;5.37;;
66559;SDS011;53413;49.878;8.142;2023-07-16T04:12:51;12.50;;;5.17;;
66559;SDS011;53413;49.878;8.142;2023-07-16T04:15:16;10.37;;;4.80;;
66559;SDS011;53413;49.878;8.142;2023-07-16T04:17:42;13.88;;;4.55;;
66559;SDS011;53413;49.878;8.142;2023-07-16T04:20:07;9.75;;;4.57;;
66559;SDS011;53413;49.878;8.142;2023-07-16T04:22:33;9.37;;;4.57;;
66559;SDS011;53413;49.878;8.142;2023-07-16T04:25:00;12.15;;;4.22;;
66559;SDS011;53413;49.878;8.142;2023-07-16T04:27:25;13.47;;;4.47;;
66559;SDS011;53413;49.878;8.142;2023-07-16T04:29:51;14.17;;;4.60;;
66559;SDS011;53413;49.878;8.142;2023-07-16T04:32:16;9.10;;;4.30;;
66559;SDS011;53413;49.878;8.142;2023-07-16T04:34:41;11.13;;;4.43;;
66559;SDS011;53413;49.878;8.142;2023-07-16T04:37:07;10.67;;;4.03;;
66559;SDS011;53413;49.878;8.142;2023-07-16T04:39:32;8.50;;;4.03;;
66559;SDS011;53413;49.878;8.142;2023-07-16T04:41:57;10.70;;;4.23;;
66559;SDS011;53413;49.878;8.142;2023-07-16T04:44:23;10.37;;;4.30;;
66559;SDS011;53413;49.878;8.142;2023-07-16T04:46:48;11.47;;;4.03;;
66559;SDS011;53413;49.878;8.142;2023-07-16T04:49:13;11.03;;;3.70;;
66559;SDS011;53413;49.878;8.142;2023-07-16T04:51:39;9.90;;;3.70;;
66559;SDS011;53413;49.878;8.142;2023-07-16T04:54:04;8.73;;;3.77;;
66559;SDS011;53413;49.878;8.142;2023-07-16T04:56:29;10.80;;;3.87;;
66559;SDS011;53413;49.878;8.142;2023-07-16T04:58:55;8.17;;;3.73;;
66559;SDS011;53413;49.878;8.142;2023-07-16T05:01:20;11.53;;;3.70;;
66559;SDS011;53413;49.878;8.142;2023-07-16T05:03:45;10.23;;;3.70;;
66559;SDS011;53413;49.878;8.142;2023-07-16T05:06:11;9.80;;;3.90;;
66559;SDS011;53413;49.878;8.142;2023-07-16T05:08:36;10.65;;;3.38;;
66559;SDS011;53413;49.878;8.142;2023-07-16T05:11:01;10.53;;;3.27;;
66559;SDS011;53413;49.878;8.142;2023-07-16T05:13:27;9.60;;;3.50;;
66559;SDS011;53413;49.878;8.142;2023-07-16T05:15:52;10.37;;;3.60;;
66559;SDS011;53413;49.878;8.142;2023-07-16T05:18:18;10.30;;;3.73;;
66559;SDS011;53413;49.878;8.142;2023-07-16T05:20:46;9.50;;;3.30;;
66559;SDS011;53413;49.878;8.142;2023-07-16T05:23:12;10.32;;;3.65;;
66559;SDS011;53413;49.878;8.142;2023-07-16T05:25:37;10.27;;;3.73;;
66559;SDS011;53413;49.878;8.142;2023-07-16T05:28:02;8.18;;;3.40;;
66559;SDS011;53413;49.878;8.142;2023-07-16T05:30:28;9.07;;;3.30;;
66559;SDS011;53413;49.878;8.142;2023-07-16T05:32:53;9.40;;;3.33;;
66559;SDS011;53413;49.878;8.142;2023-07-16T05:35:18;7.40;;;3.30;;
66559;SDS011;53413;49.878;8.142;2023-07-16T05:37:44;11.13;;;3.40;;
66559;SDS011;53413;49.878;8.142;2023-07-16T05:40:09;8.70;;;2.97;;
66559;SDS011;53413;49.878;8.142;2023-07-16T05:42:35;8.93;;;3.47;;
66559;SDS011;53413;49.878;8.142;2023-07-16T05:45:00;10.23;;;3.30;;
66559;SDS011;53413;49.878;8.142;2023-07-16T05:47:26;7.00;;;3.43;;
66559;SDS011;53413;49.878;8.142;2023-07-16T05:49:51;10.13;;;3.57;;
66559;SDS011;53413;49.878;8.142;2023-07-16T05:52:17;8.75;;;4.00;;
66559;SDS011;53413;49.878;8.142;2023-07-16T05:54:43;9.63;;;3.83;;
66559;SDS011;53413;49.878;8.142;2023-07-16T05:57:09;9.07;;;3.72;;
66559;SDS011;53413;49.878;8.142;2023-07-16T05:59:35;7.13;;;3.20;;
66559;SDS011;53413;49.878;8.142;2023-07-16T06:02:02;9.00;;;3.55;;
66559;SDS011;53413;49.878;8.142;2023-07-16T06:04:28;8.98;;;3.78;;
66559;SDS011;53413;49.878;8.142;2023-07-16T06:06:54;7.43;;;3.50;;
66559;SDS011;53413;49.878;8.142;2023-07-16T06:09:19;7.43;;;3.40;;
66559;SDS011;53413;49.878;8.142;2023-07-16T06:11:47;9.63;;;3.30;;
66559;SDS011;53413;49.878;8.142;2023-07-16T06:14:13;7.82;;;3.53;;
66559;SDS011;53413;49.878;8.142;2023-07-16T06:16:38;7.07;;;3.40;;
66559;SDS011;53413;49.878;8.142;2023-07-16T06:19:04;7.90;;;3.20;;
66559;SDS011;53413;49.878;8.142;2023-07-16T06:21:32;5.78;;;3.10;;
66559;SDS011;53413;49.878;8.142;2023-07-16T06:23:58;7.27;;;3.40;;
66559;SDS011;53413;49.878;8.142;2023-07-16T06:26:23;7.78;;;3.65;;
66559;SDS011;53413;49.878;8.142;2023-07-16T06:28:48;5.77;;;3.27;;
66559;SDS011;53413;49.878;8.142;2023-07-16T06:31:15;8.25;;;3.30;;
66559;SDS011;53413;49.878;8.142;2023-07-16T06:33:41;8.80;;;3.20;;
66559;SDS011;53413;49.878;8.142;2023-07-16T06:36:06;6.57;;;3.37;;
66559;SDS011;53413;49.878;8.142;2023-07-16T06:38:32;8.27;;;3.25;;
66559;SDS011;53413;49.878;8.142;2023-07-16T06:40:57;6.53;;;3.13;;
66559;SDS011;53413;49.878;8.142;2023-07-16T06:43:22;7.13;;;3.40;;
66559;SDS011;53413;49.878;8.142;2023-07-16T06:45:48;6.83;;;3.60;;
66559;SDS011;53413;49.878;8.142;2023-07-16T06:48:15;6.45;;;3.50;;
66559;SDS011;53413;49.878;8.142;2023-07-16T06:50:41;7.17;;;3.73;;
66559;SDS011;53413;49.878;8.142;2023-07-16T06:53:06;6.63;;;3.67;;
66559;SDS011;53413;49.878;8.142;2023-07-16T06:55:32;6.97;;;3.40;;
66559;SDS011;53413;49.878;8.142;2023-07-16T06:57:57;7.40;;;3.27;;
66559;SDS011;53413;49.878;8.142;2023-07-16T07:00:22;7.40;;;3.63;;
66559;SDS011;53413;49.878;8.142;2023-07-16T07:02:48;8.00;;;3.40;;
66559;SDS011;53413;49.878;8.142;2023-07-16T07:05:13;10.77;;;3.53;;
66559;SDS011;53413;49.878;8.142;2023-07-16T07:07:38;5.90;;;3.10;;
66559;SDS011;53413;49.878;8.142;2023-07-16T07:10:04;8.47;;;3.60;;
66559;SDS011;53413;49.878;8.142;2023-07-16T07:12:30;6.20;;;3.15;;
66559;SDS011;53413;49.878;8.142;2023-07-16T07:14:59;7.30;;;3.55;;
66559;SDS011;53413;49.878;8.142;2023-07-16T07:17:25;7.93;;;3.33;;
66559;SDS011;53413;49.878;8.142;2023-07-16T07:19:50;7.33;;;3.43;;
66559;SDS011;53413;49.878;8.142;2023-07-16T07:22:15;7.67;;;3.40;;
66559;SDS011;53413;49.878;8.142;2023-07-16T07:24:41;6.55;;;3.40;;
66559;SDS011;53413;49.878;8.142;2023-07-16T07:27:06;6.97;;;3.20;;
66559;SDS011;53413;49.878;8.142;2023-07-16T07:29:31;7.67;;;3.60;;
66559;SDS011;53413;49.878;8.142;2023-07-16T07:31:57;6.17;;;3.07;;
66559;SDS011;53413;49.878;8.142;2023-07-16T07:34:22;6.77;;;2.77;;
66559;SDS011;53413;49.878;8.142;2023-07-16T07:36:48;6.40;;;2.97;;
66559;SDS011;53413;49.878;8.142;2023-07-16T07:39:13;6.57;;;3.38;;
66559;SDS011;53413;49.878;8.142;2023-07-16T07:41:39;6.87;;;3.23;;
66559;SDS011;53413;49.878;8.142;2023-07-16T07:44:04;6.67;;;3.20;;
66559;SDS011;53413;49.878;8.142;2023-07-16T07:46:30;6.55;;;3.13;;
66559;SDS011;53413;49.878;8.142;2023-07-16T07:48:55;8.23;;;2.97;;
66559;SDS011;53413;49.878;8.142;2023-07-16T07:51:20;5.53;;;2.93;;
66559;SDS011;53413;49.878;8.142;2023-07-16T07:53:46;6.13;;;3.33;;
66559;SDS011;53413;49.878;8.142;2023-07-16T07:56:11;6.33;;;3.27;;
66559;SDS011;53413;49.878;8.142;2023-07-16T07:58:36;6.43;;;2.57;;
66559;SDS011;53413;49.878;8.142;2023-07-16T08:01:06;6.40;;;2.80;;
66559;SDS011;53413;49.878;8.142;2023-07-16T08:03:32;7.20;;;3.40;;
66559;SDS011;53413;49.878;8.142;2023-07-16T08:05:57;6.13;;;3.05;;
66559;SDS011;53413;49.878;8.142;2023-07-16T08:08:22;5.20;;;3.20;;
66559;SDS011;53413;49.878;8.142;2023-07-16T08:10:48;6.57;;;3.00;;
66559;SDS011;53413;49.878;8.142;2023-07-16T08:13:13;6.70;;;2.80;;
66559;SDS011;53413;49.878;8.142;2023-07-16T08:15:38;6.87;;;3.10;;
66559;SDS011;53413;49.878;8.142;2023-07-16T08:18:04;6.23;;;2.40;;
66559;SDS011;53413;49.878;8.142;2023-07-16T08:20:29;6.20;;;2.97;;
66559;SDS011;53413;49.878;8.142;2023-07-16T08:22:55;8.40;;;3.07;;
66559;SDS011;53413;49.878;8.142;2023-07-16T08:25:20;8.82;;;2.92;;
66559;SDS011;53413;49.878;8.142;2023-07-16T08:27:46;7.78;;;3.42;;
66559;SDS011;53413;49.878;8.142;2023-07-16T08:30:12;7.43;;;3.10;;
66559;SDS011;53413;49.878;8.142;2023-07-16T08:32:38;6.10;;;2.80;;
66559;SDS011;53413;49.878;8.142;2023-07-16T08:35:04;6.03;;;3.07;;
66559;SDS011;53413;49.878;8.142;2023-07-16T08:37:29;6.37;;;3.03;;
66559;SDS011;53413;49.878;8.142;2023-07-16T08:39:54;7.50;;;3.30;;
66559;SDS011;53413;49.878;8.142;2023-07-16T08:42:20;6.57;;;3.03;;
66559;SDS011;53413;49.878;8.142;2023-07-16T08:44:47;6.37;;;2.97;;
66559;SDS011;53413;49.878;8.142;2023-07-16T08:47:14;6.28;;;3.10;;
66559;SDS011;53413;49.878;8.142;2023-07-16T08:49:40;6.33;;;3.03;;
66559;SDS011;53413;49.878;8.142;2023-07-16T08:52:06;6.25;;;2.88;;
66559;SDS011;53413;49.878;8.142;2023-07-16T08:54:32;6.00;;;3.05;;
66559;SDS011;53413;49.878;8.142;2023-07-16T08:56:58;6.70;;;3.10;;
66559;SDS011;53413;49.878;8.142;2023-07-16T08:59:24;6.75;;;3.05;;
66559;SDS011;53413;49.878;8.142;2023-07-16T09:01:51;7.37;;;2.90;;
66559;SDS011;53413;49.878;8.142;2023-07-16T09:04:17;6.53;;;2.63;;
66559;SDS011;53413;49.878;8.142;2023-07-16T09:06:43;7.17;;;3.23;;
66559;SDS011;53413;49.878;8.142;2023-07-16T09:09:13;6.53;;;3.22;;
66559;SDS011;53413;49.878;8.142;2023-07-16T09:11:46;5.70;;;2.58;;
66559;SDS011;53413;49.878;8.142;2023-07-16T09:14:14;5.17;;;2.60;;
66559;SDS011;53413;49.878;8.142;2023-07-16T09:16:41;6.25;;;3.10;;
66559;SDS011;53413;49.878;8.142;2023-07-16T09:19:08;7.40;;;2.43;;
66559;SDS011;53413;49.878;8.142;2023-07-16T09:21:36;4.85;;;2.60;;
66559;SDS011;53413;49.878;8.142;2023-07-16T09:24:05;5.00;;;2.78;;
66559;SDS011;53413;49.878;8.142;2023-07-16T09:26:32;7.88;;;2.80;;
66559;SDS011;53413;49.878;8.142;2023-07-16T09:28:57;7.13;;;3.40;;
66559;SDS011;53413;49.878;8.142;2023-07-16T09:31:23;6.37;;;3.07;;
66559;SDS011;53413;49.878;8.142;2023-07-16T09:33:48;6.20;;;3.10;;
66559;SDS011;53413;49.878;8.142;2023-07-16T09:36:22;7.28;;;3.00;;
66559;SDS011;53413;49.878;8.142;2023-07-16T09:38:49;5.82;;;2.67;;
66559;SDS011;53413;49.878;8.142;2023-07-16T09:41:14;6.30;;;3.23;;
66559;SDS011;53413;49.878;8.142;2023-07-16T09:43:41;7.00;;;3.30;;
66559;SDS011;53413;49.878;8.142;2023-07-16T09:46:06;6.50;;;3.43;;
66559;SDS011;53413;49.878;8.142;2023-07-16T09:48:32;9.32;;;3.10;;
66559;SDS011;53413;49.878;8.142;2023-07-16T09:50:57;6.00;;;3.00;;
66559;SDS011;53413;49.878;8.142;2023-07-16T09:53:23;5.40;;;3.13;;
66559;SDS011;53413;49.878;8.142;2023-07-16T09:55:49;6.80;;;2.67;;
66559;SDS011;53413;49.878;8.142;2023-07-16T09:58:17;6.10;;;2.38;;
66559;SDS011;53413;49.878;8.142;2023-07-16T10:00:44;5.60;;;3.10;;
66559;SDS011;53413;49.878;8.142;2023-07-16T10:03:12;6.22;;;2.70;;
66559;SDS011;53413;49.878;8.142;2023-07-16T10:05:38;7.47;;;2.72;;
66559;SDS011;53413;49.878;8.142;2023-07-16T10:08:03;6.47;;;2.90;;
66559;SDS011;53413;49.878;8.142;2023-07-16T10:10:39;5.25;;;2.80;;
66559;SDS011;53413;49.878;8.142;2023-07-16T10:13:06;7.40;;;2.92;;
66559;SDS011;53413;49.878;8.142;2023-07-16T10:15:33;5.50;;;2.40;;
66559;SDS011;53413;49.878;8.142;2023-07-16T10:17:58;6.50;;;2.70;;
66559;SDS011;53413;49.878;8.142;2023-07-16T10:20:36;5.97;;;2.87;;
66559;SDS011;53413;49.878;8.142;2023-07-16T10:23:11;18.27;;;4.80;;
66559;SDS011;53413;49.878;8.142;2023-07-16T10:25:38;12.80;;;3.37;;
66559;SDS011;53413;49.878;8.142;2023-07-16T10:28:03;8.30;;;2.60;;
66559;SDS011;53413;49.878;8.142;2023-07-16T10:30:29;6.27;;;2.40;;
66559;SDS011;53413;49.878;8.142;2023-07-16T10:32:55;7.55;;;2.40;;
66559;SDS011;53413;49.878;8.142;2023-07-16T10:35:20;8.20;;;2.20;;
66559;SDS011;53413;49.878;8.142;2023-07-16T10:37:46;9.37;;;2.60;;
66559;SDS011;53413;49.878;8.142;2023-07-16T10:40:12;5.53;;;2.40;;
66559;SDS011;53413;49.878;8.142;2023-07-16T10:42:40;5.22;;;2.30;;
66559;SDS011;53413;49.878;8.142;2023-07-16T10:45:08;6.00;;;2.30;;
66559;SDS011;53413;49.878;8.142;2023-07-16T10:47:35;6.00;;;2.22;;
66559;SDS011;53413;49.878;8.142;2023-07-16T10:50:08;5.50;;;2.40;;
66559;SDS011;53413;49.878;8.142;2023-07-16T10:52:35;6.65;;;2.17;;
66559;SDS011;53413;49.878;8.142;2023-07-16T10:55:01;5.47;;;2.20;;
66559;SDS011;53413;49.878;8.142;2023-07-16T10:57:26;6.80;;;2.30;;
66559;SDS011;53413;49.878;8.142;2023-07-16T10:59:54;7.63;;;2.30;;
66559;SDS011;53413;49.878;8.142;2023-07-16T11:02:21;6.03;;;2.40;;
66559;SDS011;53413;49.878;8.142;2023-07-16T11:04:47;6.82;;;2.65;;
66559;SDS011;53413;49.878;8.142;2023-07-16T11:07:13;6.60;;;2.60;;
66559;SDS011;53413;49.878;8.142;2023-07-16T11:09:49;5.90;;;2.55;;
66559;SDS011;53413;49.878;8.142;2023-07-16T11:12:17;7.35;;;2.50;;
66559;SDS011;53413;49.878;8.142;2023-07-16T11:14:44;5.47;;;2.50;;
66559;SDS011;53413;49.878;8.142;2023-07-16T11:17:11;6.80;;;2.60;;
66559;SDS011;53413;49.878;8.142;2023-07-16T11:19:38;7.47;;;2.60;;
66559;SDS011;53413;49.878;8.142;2023-07-16T11:22:04;6.53;;;2.50;;
66559;SDS011;53413;49.878;8.142;2023-07-16T11:27:40;7.30;;;2.35;;
66559;SDS011;53413;49.878;8.142;2023-07-16T11:29:59;6.07;;;2.60;;
66559;SDS011;53413;49.878;8.142;2023-07-16T11:32:41;6.50;;;2.60;;
66559;SDS011;53413;49.878;8.142;2023-07-16T11:35:08;7.82;;;2.83;;
66559;SDS011;53413;49.878;8.142;2023-07-16T11:37:35;5.28;;;2.70;;
66559;SDS011;53413;49.878;8.142;2023-07-16T11:40:02;5.77;;;2.60;;
66559;SDS011;53413;49.878;8.142;2023-07-16T11:42:29;6.53;;;2.70;;
66559;SDS011;53413;49.878;8.142;2023-07-16T11:45:00;6.50;;;2.78;;
66559;SDS011;53413;49.878;8.142;2023-07-16T11:47:26;6.90;;;2.90;;
66559;SDS011;53413;49.878;8.142;2023-07-16T11:49:55;6.20;;;2.70;;
66559;SDS011;53413;49.878;8.142;2023-07-16T11:52:22;7.63;;;2.88;;
66559;SDS011;53413;49.878;8.142;2023-07-16T11:54:49;6.07;;;2.90;;
66559;SDS011;53413;49.878;8.142;2023-07-16T11:57:15;5.57;;;2.53;;
66559;SDS011;53413;49.878;8.142;2023-07-16T11:59:40;5.60;;;2.78;;
66559;SDS011;53413;49.878;8.142;2023-07-16T12:02:06;7.33;;;2.70;;
66559;SDS011;53413;49.878;8.142;2023-07-16T12:04:32;6.05;;;2.78;;
66559;SDS011;53413;49.878;8.142;2023-07-16T12:06:57;7.50;;;3.03;;
66559;SDS011;53413;49.878;8.142;2023-07-16T12:09:22;6.87;;;3.00;;
66559;SDS011;53413;49.878;8.142;2023-07-16T12:11:48;7.57;;;2.73;;
66559;SDS011;53413;49.878;8.142;2023-07-16T12:14:13;7.63;;;3.10;;
66559;SDS011;53413;49.878;8.142;2023-07-16T12:16:38;6.22;;;3.10;;
66559;SDS011;53413;49.878;8.142;2023-07-16T12:19:05;6.90;;;2.83;;
66559;SDS011;53413;49.878;8.142;2023-07-16T12:21:32;6.85;;;2.90;;
66559;SDS011;53413;49.878;8.142;2023-07-16T12:23:58;6.35;;;2.75;;
66559;SDS011;53413;49.878;8.142;2023-07-16T12:26:23;6.93;;;3.00;;
66559;SDS011;53413;49.878;8.142;2023-07-16T12:28:49;7.90;;;3.20;;
66559;SDS011;53413;49.878;8.142;2023-07-16T12:31:14;7.77;;;3.17;;
66559;SDS011;53413;49.878;8.142;2023-07-16T12:33:41;7.75;;;2.88;;
66559;SDS011;53413;49.878;8.142;2023-07-16T12:36:06;8.70;;;3.20;;
66559;SDS011;53413;49.878;8.142;2023-07-16T12:38:32;6.50;;;3.00;;
66559;SDS011;53413;49.878;8.142;2023-07-16T12:40:57;7.90;;;3.03;;
66559;SDS011;53413;49.878;8.142;2023-07-16T12:43:22;7.75;;;3.03;;
66559;SDS011;53413;49.878;8.142;2023-07-16T12:45:48;7.30;;;3.13;;
66559;SDS011;53413;49.878;8.142;2023-07-16T12:48:13;6.97;;;2.90;;
66559;SDS011;53413;49.878;8.142;2023-07-16T12:50:38;6.43;;;2.73;;
66559;SDS011;53413;49.878;8.142;2023-07-16T12:53:04;7.90;;;3.10;;
66559;SDS011;53413;49.878;8.142;2023-07-16T12:55:29;5.57;;;2.80;;
66559;SDS011;53413;49.878;8.142;2023-07-16T12:57:56;8.07;;;3.00;;
66559;SDS011;53413;49.878;8.142;2023-07-16T13:00:22;6.83;;;3.20;;
66559;SDS011;53413;49.878;8.142;2023-07-16T13:02:47;7.80;;;3.50;;
66559;SDS011;53413;49.878;8.142;2023-07-16T13:05:12;7.37;;;3.17;;
66559;SDS011;53413;49.878;8.142;2023-07-16T13:07:38;7.60;;;3.08;;
66559;SDS011;53413;49.878;8.142;2023-07-16T13:10:03;6.38;;;3.30;;
66559;SDS011;53413;49.878;8.142;2023-07-16T13:12:29;6.87;;;3.00;;
66559;SDS011;53413;49.878;8.142;2023-07-16T13:14:54;7.82;;;3.20;;
66559;SDS011;53413;49.878;8.142;2023-07-16T13:17:20;6.32;;;2.95;;
66559;SDS011;53413;49.878;8.142;2023-07-16T13:19:45;7.50;;;3.13;;
66559;SDS011;53413;49.878;8.142;2023-07-16T13:22:11;8.60;;;3.30;;
66559;SDS011;53413;49.878;8.142;2023-07-16T13:24:36;7.33;;;3.40;;
66559;SDS011;53413;49.878;8.142;2023-07-16T13:27:01;6.32;;;3.20;;
66559;SDS011;53413;49.878;8.142;2023-07-16T13:29:27;8.97;;;3.17;;
66559;SDS011;53413;49.878;8.142;2023-07-16T13:31:53;6.67;;;3.17;;
66559;SDS011;53413;49.878;8.142;2023-07-16T13:34:18;6.90;;;3.20;;
66559;SDS011;53413;49.878;8.142;2023-07-16T13:36:43;7.38;;;3.30;;
66559;SDS011;53413;49.878;8.142;2023-07-16T13:39:09;7.15;;;3.03;;
66559;SDS011;53413;49.878;8.142;2023-07-16T13:41:34;6.70;;;3.03;;
66559;SDS011;53413;49.878;8.142;2023-07-16T13:44:01;8.23;;;3.05;;
66559;SDS011;53413;49.878;8.142;2023-07-16T13:46:26;7.00;;;3.30;;
66559;SDS011;53413;49.878;8.142;2023-07-16T13:48:51;8.07;;;3.53;;
66559;SDS011;53413;49.878;8.142;2023-07-16T13:51:17;8.27;;;3.40;;
66559;SDS011;53413;49.878;8.142;2023-07-16T13:53:42;10.07;;;3.75;;
66559;SDS011;53413;49.878;8.142;2023-07-16T13:56:07;7.17;;;3.20;;
66559;SDS011;53413;49.878;8.142;2023-07-16T13:58:33;9.37;;;3.40;;
66559;SDS011;53413;49.878;8.142;2023-07-16T14:00:58;7.68;;;3.10;;
66559;SDS011;53413;49.878;8.142;2023-07-16T14:03:24;6.23;;;3.40;;
66559;SDS011;53413;49.878;8.142;2023-07-16T14:05:49;6.47;;;3.40;;
66559;SDS011;53413;49.878;8.142;2023-07-16T14:08:15;6.97;;;3.20;;
66559;SDS011;53413;49.878;8.142;2023-07-16T14:10:40;10.27;;;3.73;;
66559;SDS011;53413;49.878;8.142;2023-07-16T14:13:05;8.13;;;3.87;;
66559;SDS011;53413;49.878;8.142;2023-07-16T14:15:31;7.53;;;3.50;;
66559;SDS011;53413;49.878;8.142;2023-07-16T14:17:56;7.32;;;3.50;;
66559;SDS011;53413;49.878;8.142;2023-07-16T14:20:21;8.60;;;3.57;;
66559;SDS011;53413;49.878;8.142;2023-07-16T14:22:47;7.53;;;3.47;;
66559;SDS011;53413;49.878;8.142;2023-07-16T14:25:12;7.93;;;3.73;;
66559;SDS011;53413;49.878;8.142;2023-07-16T14:27:37;7.27;;;3.77;;
66559;SDS011;53413;49.878;8.142;2023-07-16T14:30:03;7.47;;;3.93;;
66559;SDS011;53413;49.878;8.142;2023-07-16T14:32:28;7.72;;;3.60;;
66559;SDS011;53413;49.878;8.142;2023-07-16T14:34:56;8.73;;;3.80;;
66559;SDS011;53413;49.878;8.142;2023-07-16T14:37:21;7.72;;;3.70;;
66559;SDS011;53413;49.878;8.142;2023-07-16T14:39:47;7.37;;;4.20;;
66559;SDS011;53413;49.878;8.142;2023-07-16T14:42:12;8.80;;;3.87;;
66559;SDS011;53413;49.878;8.142;2023-07-16T14:44:38;8.83;;;4.03;;
66559;SDS011;53413;49.878;8.142;2023-07-16T14:47:03;8.83;;;3.50;;